Time;durP1;ratioP1;P1;durP2;ratioP2;P2;SDS_P1;SDS_P2;PMS_P1;PMS_P2;Temp;Humidity;BMP_temperature;BMP_pressure;BME280_temperature;BME280_humidity;BME280_pressure;Samples;Min_cycle;Max_cycle;Signal;HPM_P1;HPM_P2
2022/11/15 00:00:48;;;;;;;7.40;6.60;;;8.60;71.10;8.40;96345.00;;;;5043164;28;20259;-84
2022/11/15 00:03:16;;;;;;;8.23;6.50;;;8.60;71.30;8.40;96343.00;;;;5037569;28;20292;-85
2022/11/15 00:05:43;;;;;;;8.40;6.90;;;8.60;71.40;8.40;96344.00;;;;5033455;28;20301;-83
2022/11/15 00:08:11;;;;;;;8.43;6.70;;;8.60;71.50;8.40;96343.00;;;;5040295;28;20224;-83
2022/11/15 00:10:40;;;;;;;7.40;6.70;;;8.60;71.60;8.40;96336.00;;;;5043530;28;20208;-83
2022/11/15 00:13:08;;;;;;;7.23;5.83;;;8.50;71.60;8.40;96332.00;;;;5032240;28;20234;-83
2022/11/15 00:15:37;;;;;;;9.33;6.60;;;8.50;71.50;8.30;96334.00;;;;5036202;28;20764;-83
2022/11/15 00:18:05;;;;;;;11.10;6.90;;;8.50;71.50;8.30;96338.00;;;;5038438;28;20209;-83
2022/11/15 00:20:34;;;;;;;7.90;6.30;;;8.50;71.50;8.30;96337.00;;;;5036617;28;20240;-85
2022/11/15 00:23:01;;;;;;;7.60;6.30;;;8.50;71.60;8.30;96339.00;;;;5043781;28;20260;-83
2022/11/15 00:25:28;;;;;;;8.90;6.13;;;8.50;71.60;8.30;96330.00;;;;5050703;28;20240;-84
2022/11/15 00:27:59;;;;;;;7.47;6.70;;;8.50;71.60;8.20;96331.00;;;;5035078;28;20209;-82
2022/11/15 00:30:27;;;;;;;6.23;5.67;;;8.50;71.70;8.20;96327.00;;;;5040594;28;20198;-83
2022/11/15 00:32:55;;;;;;;10.07;6.10;;;8.40;71.60;8.20;96329.00;;;;5041759;28;20557;-84
2022/11/15 00:35:23;;;;;;;6.17;5.57;;;8.40;71.60;8.20;96322.00;;;;5041510;28;20781;-83
2022/11/15 00:37:50;;;;;;;8.10;5.73;;;8.40;71.70;8.20;96331.00;;;;5039589;28;20221;-84
2022/11/15 00:40:18;;;;;;;6.10;5.37;;;8.40;71.80;8.20;96330.00;;;;5034522;28;20631;-83
2022/11/15 00:42:45;;;;;;;8.77;6.00;;;8.40;71.90;8.20;96331.00;;;;5040521;28;20194;-82
2022/11/15 00:45:13;;;;;;;6.00;5.03;;;8.40;72.00;8.20;96328.00;;;;5038552;28;20678;-82
2022/11/15 00:47:40;;;;;;;6.10;5.37;;;8.40;72.00;8.20;96325.00;;;;5040448;28;20219;-84
2022/11/15 00:50:08;;;;;;;5.80;5.20;;;8.40;72.10;8.20;96318.00;;;;5043193;28;20228;-82
2022/11/15 00:52:36;;;;;;;6.60;5.00;;;8.40;72.30;8.20;96315.00;;;;5042572;28;20221;-83
2022/11/15 00:55:03;;;;;;;6.73;4.50;;;8.40;72.40;8.20;96313.00;;;;5035862;28;20225;-83
2022/11/15 00:57:34;;;;;;;9.57;4.43;;;8.40;72.30;8.20;96307.00;;;;5037169;28;20273;-83
2022/11/15 01:00:01;;;;;;;8.77;4.77;;;8.40;72.10;8.20;96303.00;;;;5043215;28;20193;-84
2022/11/15 01:02:29;;;;;;;6.97;4.77;;;8.40;72.10;8.20;96303.00;;;;5040861;28;20229;-82
2022/11/15 01:04:57;;;;;;;5.03;4.50;;;8.40;72.10;8.20;96312.00;;;;5041091;28;20399;-83
2022/11/15 01:07:24;;;;;;;9.00;4.73;;;8.40;71.90;8.20;96295.00;;;;5041321;28;20198;-83
2022/11/15 01:09:51;;;;;;;5.10;4.37;;;8.40;71.90;8.20;96296.00;;;;5037814;28;20798;-83
2022/11/15 01:12:18;;;;;;;6.17;4.67;;;8.40;71.80;8.10;96290.00;;;;5037242;28;20649;-83
2022/11/15 01:14:45;;;;;;;4.93;4.53;;;8.30;71.70;8.10;96287.00;;;;5030720;28;20234;-85
2022/11/15 01:17:12;;;;;;;4.80;4.40;;;8.30;71.60;8.10;96288.00;;;;5040566;28;20696;-83
2022/11/15 01:19:41;;;;;;;5.47;4.57;;;8.30;71.50;8.10;96286.00;;;;5040605;28;20230;-84
2022/11/15 01:22:08;;;;;;;5.70;4.70;;;8.30;71.50;8.10;96287.00;;;;5043147;28;20216;-83
2022/11/15 01:24:35;;;;;;;13.73;4.60;;;8.30;71.60;8.00;96284.00;;;;5034996;28;20259;-82
2022/11/15 01:27:03;;;;;;;6.83;4.77;;;8.30;71.60;8.00;96280.00;;;;5037845;28;20221;-83
2022/11/15 01:29:30;;;;;;;4.60;4.20;;;8.30;71.90;8.00;96284.00;;;;5039717;28;20220;-82
2022/11/15 01:31:57;;;;;;;5.27;4.70;;;8.30;72.00;8.00;96273.00;;;;5041431;28;20201;-83
2022/11/15 01:34:24;;;;;;;5.10;4.70;;;8.20;72.10;8.10;96266.00;;;;5039448;28;20225;-83
2022/11/15 01:36:53;;;;;;;8.20;5.07;;;8.20;72.20;8.10;96269.00;;;;5042698;28;20219;-83
2022/11/15 01:39:20;;;;;;;4.17;3.80;;;8.30;72.10;8.10;96266.00;;;;5044356;28;20198;-83
2022/11/15 01:41:47;;;;;;;4.90;4.50;;;8.30;72.00;8.00;96259.00;;;;5034575;28;20213;-83
2022/11/15 01:44:41;;;;;;;8.90;5.27;;;8.30;71.90;8.00;96260.00;;;;5034826;28;20245;-83
2022/11/15 01:47:14;;;;;;;5.37;4.13;;;8.20;72.00;8.00;96252.00;;;;5034322;28;20308;-83
2022/11/15 01:49:56;;;;;;;4.83;4.43;;;8.20;72.10;8.00;96244.00;;;;5040345;28;20221;-83
2022/11/15 01:52:29;;;;;;;4.77;4.37;;;8.20;72.20;8.00;96250.00;;;;5046464;28;20228;-83
2022/11/15 01:55:06;;;;;;;4.53;4.13;;;8.20;72.20;8.00;96246.00;;;;5035669;28;20237;-83
2022/11/15 01:57:33;;;;;;;4.80;4.40;;;8.20;72.20;8.00;96241.00;;;;5045181;28;20277;-83
2022/11/15 02:00:04;;;;;;;6.13;4.47;;;8.20;72.20;8.00;96238.00;;;;5041530;28;20237;-83
2022/11/15 02:02:32;;;;;;;4.83;4.17;;;8.20;72.30;8.00;96236.00;;;;5045691;28;20239;-83
2022/11/15 02:04:59;;;;;;;10.00;4.97;;;8.20;72.10;8.00;96241.00;;;;5043190;28;20221;-82
2022/11/15 02:07:30;;;;;;;4.60;3.97;;;8.20;72.00;8.00;96237.00;;;;5044263;28;20220;-83
2022/11/15 02:10:05;;;;;;;9.77;4.43;;;8.20;71.90;8.00;96232.00;;;;5043536;28;20217;-83
2022/11/15 02:12:32;;;;;;;5.77;3.97;;;8.20;71.80;8.00;96223.00;;;;5032803;28;20236;-83
2022/11/15 02:15:00;;;;;;;7.93;4.37;;;8.20;71.70;8.00;96220.00;;;;5031988;28;20237;-83
2022/11/15 02:17:44;;;;;;;8.17;3.87;;;8.20;71.70;7.90;96232.00;;;;5045007;28;20237;-82
2022/11/15 02:20:51;;;;;;;4.37;4.07;;;8.20;71.70;7.90;96227.00;;;;5041588;28;20222;-83
2022/11/15 02:24:30;;;;;;;4.30;3.90;;;8.20;71.60;7.80;96220.00;;;;5034897;28;20213;-82
2022/11/15 02:28:09;;;;;;;5.63;4.33;;;8.20;71.30;7.80;96212.00;;;;5015032;28;20292;-83
2022/11/15 02:30:43;;;;;;;4.27;3.83;;;8.10;71.20;7.80;96213.00;;;;4944182;29;20209;-83
2022/11/15 02:33:28;;;;;;;3.97;3.67;;;8.10;71.20;7.80;96206.00;;;;4941399;29;20260;-83
2022/11/15 02:36:02;;;;;;;4.63;4.23;;;8.10;71.20;7.70;96199.00;;;;5011190;28;20643;-82
2022/11/15 02:38:41;;;;;;;4.23;3.87;;;8.00;71.10;7.70;96198.00;;;;5036937;28;20189;-83
2022/11/15 02:41:14;;;;;;;4.07;3.60;;;8.00;71.10;7.70;96190.00;;;;5034011;28;20212;-83
2022/11/15 02:43:58;;;;;;;5.23;4.23;;;8.00;71.10;7.70;96196.00;;;;5044542;28;20190;-82
2022/11/15 02:49:21;;;;;;;4.47;4.13;;;7.90;71.20;7.60;96193.00;;;;5040956;28;20207;-83
2022/11/15 02:51:52;;;;;;;4.43;4.03;;;7.90;71.10;7.60;96192.00;;;;5043741;28;20213;-83
2022/11/15 02:54:25;;;;;;;5.07;3.70;;;7.90;71.10;7.60;96189.00;;;;5040058;28;20637;-83
2022/11/15 02:56:56;;;;;;;3.77;3.47;;;7.80;71.10;7.60;96182.00;;;;5034354;28;20236;-83
2022/11/15 03:00:13;;;;;;;4.40;4.03;;;7.80;71.30;7.60;96184.00;;;;5043052;28;20241;-83
2022/11/15 03:03:07;;;;;;;4.00;3.63;;;7.80;71.30;7.60;96184.00;;;;5021131;28;20638;-82
2022/11/15 03:05:47;;;;;;;3.70;3.40;;;7.80;71.40;7.60;96181.00;;;;5043076;28;20253;-84
2022/11/15 03:08:27;;;;;;;4.20;3.80;;;7.80;71.40;7.50;96176.00;;;;5039213;28;20201;-83
2022/11/15 03:11:07;;;;;;;8.17;4.20;;;7.80;71.40;7.50;96173.00;;;;5035208;28;20223;-83
2022/11/15 03:13:46;;;;;;;4.60;3.50;;;7.80;71.50;7.50;96178.00;;;;5040959;28;20591;-83
2022/11/15 03:16:21;;;;;;;4.47;3.50;;;7.80;71.60;7.50;96183.00;;;;5042697;28;20220;-83
2022/11/15 03:18:57;;;;;;;4.37;3.43;;;7.80;71.60;7.50;96177.00;;;;5042446;28;20221;-83
2022/11/15 03:21:28;;;;;;;4.50;3.77;;;7.80;71.60;7.50;96175.00;;;;5039593;28;20239;-82
2022/11/15 03:23:57;;;;;;;5.10;3.70;;;7.70;71.50;7.50;96169.00;;;;5035241;28;20277;-82
2022/11/15 03:26:26;;;;;;;3.70;3.40;;;7.70;71.60;7.50;96173.00;;;;5042633;28;20220;-84
2022/11/15 03:28:59;;;;;;;4.00;3.60;;;7.70;71.60;7.50;96166.00;;;;5037932;28;20205;-83
2022/11/15 03:34:30;;;;;;;3.80;3.50;;;7.70;71.40;7.50;96165.00;;;;5033662;28;20723;-82
2022/11/15 03:36:58;;;;;;;14.83;3.47;;;7.70;71.40;7.40;96164.00;;;;5033600;28;20260;-82
2022/11/15 03:39:27;;;;;;;4.17;3.77;;;7.70;71.40;7.40;96174.00;;;;5040327;28;20201;-83
2022/11/15 03:42:09;;;;;;;5.77;3.37;;;7.70;71.40;7.40;96165.00;;;;5039703;28;20221;-82
2022/11/15 03:44:46;;;;;;;3.60;3.30;;;7.70;71.60;7.40;96161.00;;;;5024036;28;20245;-83
2022/11/15 03:47:21;;;;;;;3.60;3.30;;;7.60;71.60;7.40;96162.00;;;;5039851;28;20194;-83
2022/11/15 03:49:56;;;;;;;4.43;3.70;;;7.60;71.60;7.40;96164.00;;;;5037879;28;20246;-83
2022/11/15 03:52:24;;;;;;;4.40;3.40;;;7.60;71.60;7.40;96163.00;;;;5041715;28;20589;-82
2022/11/15 03:54:55;;;;;;;6.47;3.20;;;7.60;71.60;7.40;96166.00;;;;5023335;28;20668;-82
2022/11/15 03:57:22;;;;;;;3.77;3.40;;;7.60;71.60;7.40;96159.00;;;;5033201;28;20224;-82
2022/11/15 03:59:49;;;;;;;3.60;3.30;;;7.60;71.50;7.40;96159.00;;;;5048182;28;20252;-82
2022/11/15 04:02:17;;;;;;;3.87;3.57;;;7.60;71.40;7.40;96160.00;;;;5042371;28;20205;-82
2022/11/15 04:04:44;;;;;;;3.80;3.50;;;7.60;71.30;7.30;96158.00;;;;5030109;28;20280;-82
2022/11/15 04:07:13;;;;;;;3.83;3.43;;;7.60;71.20;7.30;96154.00;;;;5025230;28;20228;-83
2022/11/15 04:12:30;;;;;;;5.97;3.60;;;7.60;71.30;7.30;96154.00;;;;5040737;28;20592;-83
2022/11/15 04:15:08;;;;;;;4.07;3.67;;;7.60;71.40;7.30;96146.00;;;;5024486;28;20256;-82
2022/11/15 04:17:37;;;;;;;3.87;3.50;;;7.60;71.60;7.30;96145.00;;;;5031326;28;20198;-82
2022/11/15 04:25:39;;;;;;;3.47;3.17;;;7.50;72.10;7.30;96128.00;;;;5036941;28;20408;-82
2022/11/15 04:28:06;;;;;;;8.80;3.50;;;7.50;72.00;7.30;96134.00;;;;5039354;28;20225;-82
2022/11/15 04:30:33;;;;;;;5.23;3.67;;;7.50;72.10;7.30;96136.00;;;;5042508;28;20229;-82
2022/11/15 04:33:01;;;;;;;4.57;3.70;;;7.50;72.00;7.30;96136.00;;;;5034846;28;20202;-83
2022/11/15 04:35:28;;;;;;;3.73;3.20;;;7.50;72.10;7.30;96137.00;;;;5029601;28;20245;-83
2022/11/15 04:37:57;;;;;;;3.27;3.03;;;7.50;72.00;7.30;96132.00;;;;5032629;28;20646;-82
2022/11/15 04:40:25;;;;;;;3.80;3.23;;;7.50;71.90;7.30;96125.00;;;;5043043;28;20576;-83
2022/11/15 04:42:52;;;;;;;3.60;3.23;;;7.50;71.80;7.30;96127.00;;;;5039011;28;20260;-84
2022/11/15 04:45:20;;;;;;;3.70;3.40;;;7.50;71.80;7.30;96117.00;;;;5042977;28;20225;-83
2022/11/15 04:47:48;;;;;;;3.83;3.53;;;7.50;71.80;7.30;96107.00;;;;5030507;28;20450;-82
2022/11/15 04:50:16;;;;;;;7.50;3.63;;;7.50;71.80;7.30;96113.00;;;;5038259;28;20229;-84
2022/11/15 04:52:50;;;;;;;3.87;3.17;;;7.50;71.90;7.30;96107.00;;;;5036797;28;20216;-83
2022/11/15 04:55:19;;;;;;;4.53;3.43;;;7.50;71.90;7.30;96104.00;;;;5038748;28;20634;-83
2022/11/15 04:57:46;;;;;;;3.80;3.50;;;7.50;72.00;7.30;96108.00;;;;5038557;28;20681;-83
2022/11/15 05:00:17;;;;;;;3.50;3.20;;;7.50;72.00;7.30;96100.00;;;;5045511;28;20213;-83
2022/11/15 05:05:29;;;;;;;4.63;3.27;;;7.50;71.80;7.30;96108.00;;;;5039377;28;20240;-83
2022/11/15 05:07:56;;;;;;;5.10;2.80;;;7.50;71.70;7.30;96107.00;;;;5028441;28;20228;-83
2022/11/15 05:10:25;;;;;;;3.73;3.20;;;7.50;71.70;7.20;96107.00;;;;5043746;28;20223;-83
2022/11/15 05:12:52;;;;;;;3.40;3.10;;;7.50;71.80;7.20;96109.00;;;;5030473;28;20268;-82
2022/11/15 05:15:19;;;;;;;3.60;3.00;;;7.50;71.70;7.20;96117.00;;;;5040930;28;20648;-82
2022/11/15 05:17:46;;;;;;;3.20;3.00;;;7.50;71.70;7.20;96114.00;;;;5037616;28;20198;-83
2022/11/15 05:20:14;;;;;;;3.20;2.90;;;7.50;71.50;7.20;96116.00;;;;5043183;28;20280;-83
2022/11/15 05:22:44;;;;;;;3.57;3.27;;;7.40;71.20;7.20;96121.00;;;;5043490;28;20231;-84
2022/11/15 05:25:11;;;;;;;4.07;3.77;;;7.40;71.20;7.10;96114.00;;;;5043533;28;20217;-86
2022/11/15 05:27:40;;;;;;;3.87;3.57;;;7.40;71.10;7.10;96109.00;;;;5037551;28;20206;-83
2022/11/15 05:30:09;;;;;;;3.97;3.63;;;7.40;71.20;7.10;96109.00;;;;5040635;28;20685;-83
2022/11/15 05:32:36;;;;;;;5.47;4.95;;;7.40;71.40;7.20;96105.00;;;;5038040;28;20477;-83
2022/11/15 05:35:07;;;;;;;4.80;4.30;;;7.20;71.80;7.10;96090.00;;;;5037757;28;20259;-83
2022/11/15 05:37:35;;;;;;;4.67;4.27;;;7.30;71.80;7.10;96099.00;;;;5037443;28;20562;-83
2022/11/15 05:40:02;;;;;;;8.67;4.47;;;7.30;71.80;7.10;96094.00;;;;5036325;28;20248;-84
2022/11/15 05:42:30;;;;;;;4.87;4.27;;;7.30;71.70;7.10;96101.00;;;;5040977;28;20228;-83
2022/11/15 05:45:08;;;;;;;6.93;4.53;;;7.30;71.70;7.10;96090.00;;;;5035046;28;20297;-83
2022/11/15 05:47:38;;;;;;;6.27;3.73;;;7.30;71.70;7.10;96087.00;;;;5029973;28;20193;-83
2022/11/15 05:50:07;;;;;;;4.47;4.03;;;7.30;71.80;7.10;96097.00;;;;5037034;28;20233;-82
2022/11/15 05:52:38;;;;;;;4.40;3.77;;;7.30;71.80;7.10;96090.00;;;;5037578;28;20214;-82
2022/11/15 05:55:09;;;;;;;4.83;4.23;;;7.30;71.90;7.10;96083.00;;;;5038909;28;20225;-83
2022/11/15 05:57:36;;;;;;;4.63;4.23;;;7.30;71.90;7.10;96085.00;;;;5038977;28;20200;-83
2022/11/15 06:00:09;;;;;;;4.33;3.93;;;7.30;71.70;7.00;96077.00;;;;5034950;28;20233;-84
2022/11/15 06:02:36;;;;;;;6.60;4.37;;;7.30;71.70;7.00;96079.00;;;;5032873;28;20202;-83
2022/11/15 06:05:04;;;;;;;3.80;3.50;;;7.30;71.70;7.00;96074.00;;;;5018013;28;20253;-83
2022/11/15 06:07:32;;;;;;;5.10;3.73;;;7.30;71.60;7.00;96075.00;;;;5023582;28;20193;-83
2022/11/15 06:09:59;;;;;;;6.23;3.90;;;7.30;71.50;7.00;96066.00;;;;5036732;28;20205;-84
2022/11/15 06:12:26;;;;;;;6.17;4.37;;;7.20;71.50;7.00;96074.00;;;;5033198;28;20217;-82
2022/11/15 06:14:53;;;;;;;5.17;3.70;;;7.20;71.50;7.00;96073.00;;;;5030418;28;20229;-85
2022/11/15 06:17:22;;;;;;;4.60;3.83;;;7.20;71.50;7.00;96077.00;;;;5027804;28;20226;-84
2022/11/15 06:19:49;;;;;;;6.13;3.20;;;7.20;71.40;7.00;96074.00;;;;5021419;28;20197;-85
2022/11/15 06:22:16;;;;;;;3.87;3.57;;;7.20;71.30;7.00;96070.00;;;;5032264;28;20233;-85
2022/11/15 06:24:43;;;;;;;4.17;3.77;;;7.20;71.20;7.10;96075.00;;;;5025620;28;20241;-86
2022/11/15 06:27:12;;;;;;;4.33;3.80;;;7.20;71.20;7.10;96067.00;;;;5035089;28;20201;-84
2022/11/15 06:29:39;;;;;;;5.20;3.70;;;7.20;71.20;7.10;96072.00;;;;5034142;28;20697;-85
2022/11/15 06:32:07;;;;;;;4.27;3.60;;;7.20;71.20;7.10;96074.00;;;;5017135;28;20226;-84
2022/11/15 06:34:36;;;;;;;3.70;3.40;;;7.20;71.10;7.10;96083.00;;;;5031710;28;20249;-84
2022/11/15 06:37:04;;;;;;;3.73;3.30;;;7.20;71.10;7.10;96090.00;;;;5038314;28;20201;-84
2022/11/15 06:39:31;;;;;;;5.93;3.73;;;7.20;71.00;7.10;96083.00;;;;5032405;28;20631;-85
2022/11/15 06:41:58;;;;;;;4.33;3.93;;;7.20;71.10;7.10;96085.00;;;;5035319;28;20233;-85
2022/11/15 06:44:25;;;;;;;5.50;4.50;;;7.20;71.00;7.10;96081.00;;;;5033001;28;20875;-83
2022/11/15 06:46:52;;;;;;;4.47;4.17;;;7.20;71.10;7.10;96078.00;;;;5032639;28;20193;-85
2022/11/15 06:49:19;;;;;;;6.50;4.83;;;7.20;71.20;7.10;96078.00;;;;5029003;28;20289;-85
2022/11/15 06:51:48;;;;;;;6.93;4.47;;;7.20;71.40;7.10;96074.00;;;;5033987;28;20198;-85
2022/11/15 06:54:15;;;;;;;5.20;4.70;;;7.20;71.60;7.10;96078.00;;;;5036617;28;20368;-85
2022/11/15 06:56:42;;;;;;;4.37;3.97;;;7.20;71.70;7.10;96067.00;;;;5035818;28;20255;-86
2022/11/15 06:59:10;;;;;;;4.33;4.03;;;7.20;71.60;7.10;96069.00;;;;5036392;28;20300;-86
2022/11/15 07:01:37;;;;;;;5.87;3.83;;;7.20;71.60;7.10;96070.00;;;;5025673;28;20645;-85
2022/11/15 07:04:04;;;;;;;5.93;3.93;;;7.20;72.30;7.20;96070.00;;;;5015711;28;20202;-85
2022/11/15 07:06:31;;;;;;;4.80;4.27;;;7.20;71.70;7.20;96071.00;;;;5026120;28;20658;-85
2022/11/15 07:09:00;;;;;;;6.37;4.03;;;7.20;71.70;7.20;96063.00;;;;5035792;28;20282;-85
2022/11/15 07:11:27;;;;;;;4.10;3.80;;;7.20;71.70;7.20;96067.00;;;;5035323;28;20201;-85
2022/11/15 07:13:54;;;;;;;3.63;3.33;;;7.20;71.80;7.20;96074.00;;;;5035452;28;20228;-85
2022/11/15 07:16:24;;;;;;;4.10;3.80;;;7.20;71.80;7.20;96065.00;;;;5034974;28;20267;-85
2022/11/15 07:18:51;;;;;;;4.63;3.97;;;7.20;71.90;7.20;96064.00;;;;5034476;28;20197;-85
2022/11/15 07:21:19;;;;;;;4.13;3.83;;;7.20;71.90;7.20;96070.00;;;;5034982;28;20347;-85
2022/11/15 07:23:46;;;;;;;4.33;4.03;;;7.30;72.10;7.20;96075.00;;;;5035521;28;20201;-85
2022/11/15 07:26:15;;;;;;;4.40;4.10;;;7.30;72.10;7.30;96080.00;;;;5034909;28;20225;-85
2022/11/15 07:28:42;;;;;;;4.43;3.93;;;7.30;72.30;7.30;96072.00;;;;5034986;28;20252;-85
2022/11/15 07:31:10;;;;;;;4.70;4.30;;;7.30;73.10;7.30;96067.00;;;;5018752;28;20245;-85
2022/11/15 07:33:37;;;;;;;5.10;4.60;;;7.30;73.20;7.40;96068.00;;;;5021399;28;20284;-85
2022/11/15 07:36:07;;;;;;;4.83;4.40;;;7.40;72.70;7.40;96066.00;;;;5034639;28;20252;-85
2022/11/15 07:38:36;;;;;;;5.20;4.00;;;7.40;72.70;7.40;96061.00;;;;5034980;28;20281;-85
2022/11/15 07:41:07;;;;;;;4.10;3.70;;;7.40;72.90;7.50;96065.00;;;;5034823;28;20288;-85
2022/11/15 07:43:35;;;;;;;4.23;3.93;;;7.40;73.00;7.50;96065.00;;;;5035134;28;20200;-85
2022/11/15 07:46:09;;;;;;;5.13;4.63;;;7.50;73.30;7.60;96068.00;;;;5035073;28;20651;-84
2022/11/15 13:41:20;;;;;;;2.30;2.20;;;16.50;66.40;16.70;95754.00;;;;5019667;28;20270;-85
2022/11/15 13:43:49;;;;;;;2.20;1.97;;;16.50;66.10;16.80;95750.00;;;;5029684;28;20764;-88
2022/11/15 13:46:20;;;;;;;2.40;2.20;;;16.50;66.50;16.80;95739.00;;;;5032465;28;20313;-83
2022/11/15 13:48:54;;;;;;;2.30;2.17;;;16.50;66.50;16.80;95738.00;;;;5022669;28;20224;-84
2022/11/15 13:51:30;;;;;;;2.40;2.30;;;16.50;66.60;16.90;95737.00;;;;5025605;28;20202;-84
2022/11/15 13:54:03;;;;;;;2.57;2.23;;;16.60;66.20;16.90;95741.00;;;;5032297;28;20527;-84
2022/11/15 13:56:34;;;;;;;3.20;2.53;;;16.60;66.30;16.90;95741.00;;;;5034368;28;20206;-85
2022/11/15 13:59:02;;;;;;;2.53;2.33;;;16.60;66.10;16.90;95745.00;;;;5035686;28;20208;-85
2022/11/15 14:01:32;;;;;;;2.30;2.10;;;16.60;65.90;16.90;95745.00;;;;5031350;28;20251;-85
2022/11/15 14:04:02;;;;;;;2.77;2.57;;;16.60;65.60;16.90;95739.00;;;;5035909;28;20623;-85
2022/11/15 14:06:31;;;;;;;2.40;2.03;;;16.60;65.80;17.00;95737.00;;;;5017658;28;20669;-86
2022/11/15 14:09:17;;;;;;;2.30;2.20;;;16.70;65.90;17.00;95735.00;;;;5016272;28;20231;-85
2022/11/15 14:11:55;;;;;;;2.53;2.33;;;16.70;66.10;17.00;95737.00;;;;5022148;28;20197;-86
2022/11/15 14:14:24;;;;;;;3.30;2.20;;;16.70;65.60;17.00;95737.00;;;;5031548;28;20263;-86
2022/11/15 14:16:54;;;;;;;2.50;2.20;;;16.70;66.00;17.00;95736.00;;;;5032244;28;20260;-86
2022/11/15 14:19:40;;;;;;;2.60;2.10;;;16.70;65.90;17.00;95737.00;;;;5049893;28;20296;-86
2022/11/15 14:22:30;;;;;;;2.40;2.20;;;16.70;66.30;16.90;95735.00;;;;5055292;28;20235;-86
2022/11/15 14:25:17;;;;;;;2.60;2.40;;;16.70;66.00;16.90;95734.00;;;;5052589;28;20216;-85
2022/11/15 14:28:14;;;;;;;2.10;2.00;;;16.60;65.90;16.90;95733.00;;;;5035194;28;20204;-86
2022/11/15 14:30:43;;;;;;;2.67;1.97;;;16.60;66.00;16.90;95731.00;;;;5023843;28;20256;-86
2022/11/15 14:33:23;;;;;;;2.23;2.10;;;16.60;65.80;16.90;95726.00;;;;5016281;28;20210;-85
2022/11/15 14:35:50;;;;;;;2.77;2.57;;;16.60;65.50;16.80;95722.00;;;;5043157;28;20315;-86
2022/11/15 14:38:18;;;;;;;3.03;2.23;;;16.50;65.70;16.80;95727.00;;;;5025344;28;20230;-85
2022/11/15 14:40:45;;;;;;;6.53;2.70;;;16.50;65.70;16.80;95722.00;;;;5048066;28;20258;-86
2022/11/15 14:43:14;;;;;;;4.83;2.43;;;16.50;65.70;16.80;95733.00;;;;5038389;28;20201;-86
2022/11/15 14:45:42;;;;;;;3.93;2.40;;;16.40;65.80;16.70;95733.00;;;;5028969;28;20236;-85
2022/11/15 14:48:10;;;;;;;3.77;2.37;;;16.40;65.90;16.70;95728.00;;;;5055404;28;20292;-86
2022/11/15 14:50:38;;;;;;;2.97;2.77;;;16.40;65.90;16.70;95727.00;;;;5020936;28;20198;-85
2022/11/15 14:53:06;;;;;;;2.07;1.97;;;16.40;65.90;16.60;95718.00;;;;5027000;28;20244;-86
2022/11/15 14:55:36;;;;;;;2.60;2.40;;;16.30;65.70;16.60;95715.00;;;;5034749;28;20267;-85
2022/11/15 14:58:04;;;;;;;2.50;2.30;;;16.30;65.60;16.50;95702.00;;;;5035190;28;20618;-85
2022/11/15 15:00:34;;;;;;;2.73;2.30;;;16.20;65.50;16.50;95705.00;;;;5034409;28;20248;-86
2022/11/15 15:03:01;;;;;;;2.97;2.30;;;16.20;65.40;16.40;95707.00;;;;5034748;28;20289;-86
2022/11/15 15:05:33;;;;;;;3.23;2.80;;;16.10;65.30;16.40;95709.00;;;;5035219;28;20762;-85
2022/11/15 15:08:01;;;;;;;2.67;2.47;;;16.10;65.20;16.30;95710.00;;;;5023746;28;20629;-86
2022/11/15 15:10:34;;;;;;;2.97;2.77;;;16.10;65.50;16.20;95710.00;;;;5030712;28;20232;-85
2022/11/15 15:13:01;;;;;;;3.27;2.40;;;16.00;65.70;16.20;95707.00;;;;5028586;28;20198;-85
2022/11/15 15:15:36;;;;;;;3.20;2.90;;;15.90;65.80;16.10;95708.00;;;;5024800;28;20271;-85
2022/11/15 15:18:04;;;;;;;3.87;2.60;;;15.80;65.80;16.00;95700.00;;;;5034645;28;20203;-85
2022/11/15 15:20:32;;;;;;;4.20;2.97;;;15.80;65.80;16.00;95702.00;;;;5034496;28;20673;-85
2022/11/15 15:22:59;;;;;;;4.53;2.70;;;15.70;65.80;15.90;95694.00;;;;5034760;28;20689;-85
2022/11/15 15:25:31;;;;;;;6.23;3.00;;;15.60;65.90;15.80;95695.00;;;;5034578;28;20931;-85
2022/11/15 15:27:59;;;;;;;4.57;2.93;;;15.60;66.10;15.70;95693.00;;;;5026877;28;20900;-85
2022/11/15 15:30:29;;;;;;;4.87;3.47;;;15.50;66.10;15.60;95680.00;;;;5027263;28;20201;-85
2022/11/15 15:32:58;;;;;;;4.63;2.70;;;15.40;66.00;15.50;95683.00;;;;5030714;28;20606;-84
2022/11/15 15:35:30;;;;;;;3.20;2.67;;;15.40;65.90;15.40;95686.00;;;;5030479;28;20674;-85
2022/11/15 15:37:57;;;;;;;3.20;2.60;;;15.30;65.80;15.30;95684.00;;;;5030058;28;20214;-85
2022/11/15 15:40:28;;;;;;;2.77;2.50;;;15.20;65.80;15.30;95688.00;;;;5020538;28;20202;-84
2022/11/15 15:42:55;;;;;;;6.47;2.90;;;15.10;65.80;15.20;95685.00;;;;5015806;28;20212;-85
2022/11/15 15:45:23;;;;;;;6.00;2.77;;;15.00;65.80;15.10;95692.00;;;;5013962;28;20264;-84
2022/11/15 15:47:51;;;;;;;11.23;3.00;;;15.00;66.00;15.00;95697.00;;;;5028201;28;20309;-85
2022/11/15 15:50:25;;;;;;;3.47;2.93;;;14.80;65.90;14.90;95691.00;;;;5034259;28;20201;-84
2022/11/15 15:52:54;;;;;;;2.70;2.50;;;14.80;66.20;14.90;95686.00;;;;5034031;28;20265;-84
2022/11/15 15:55:23;;;;;;;10.63;2.67;;;14.70;66.20;14.80;95681.00;;;;5033834;28;20217;-86
2022/11/15 15:57:50;;;;;;;4.40;2.93;;;14.60;66.40;14.70;95681.00;;;;5035567;28;20316;-83
2022/11/15 16:00:20;;;;;;;4.80;2.60;;;14.50;66.30;14.60;95684.00;;;;5034756;28;20236;-83
2022/11/15 16:02:48;;;;;;;3.30;3.10;;;14.50;66.50;14.60;95681.00;;;;5036561;28;20228;-81
2022/11/15 16:05:15;;;;;;;5.50;3.17;;;14.40;66.50;14.50;95686.00;;;;5028918;28;20245;-83
2022/11/15 16:07:44;;;;;;;5.20;2.70;;;14.40;66.80;14.50;95678.00;;;;5033008;28;20221;-83
2022/11/15 16:10:22;;;;;;;7.40;3.00;;;14.30;66.70;14.40;95685.00;;;;5036607;28;20220;-82
2022/11/15 16:12:50;;;;;;;3.20;2.87;;;14.30;66.70;14.40;95677.00;;;;5028686;28;20197;-83
2022/11/15 16:15:18;;;;;;;3.97;2.63;;;14.20;66.60;14.30;95677.00;;;;5036546;28;20228;-83
2022/11/15 16:17:50;;;;;;;7.20;3.27;;;14.20;66.50;14.20;95676.00;;;;5037721;28;20236;-84
2022/11/15 16:20:35;;;;;;;3.43;2.80;;;14.10;66.50;14.10;95681.00;;;;5025305;28;20340;-84
2022/11/15 16:23:06;;;;;;;4.57;4.10;;;14.00;66.60;14.00;95681.00;;;;5033668;28;20225;-83
2022/11/15 16:25:40;;;;;;;6.07;3.40;;;14.00;66.70;14.00;95661.00;;;;5036657;28;20655;-83
2022/11/15 16:28:19;;;;;;;4.70;4.30;;;13.90;66.80;13.90;95657.00;;;;5036387;28;20232;-83
2022/11/15 16:30:47;;;;;;;12.00;5.67;;;13.80;66.90;13.80;95657.00;;;;5036807;28;20205;-83
2022/11/15 16:33:14;;;;;;;13.10;5.23;;;13.80;67.20;13.80;95656.00;;;;5033198;28;20582;-83
2022/11/15 16:35:41;;;;;;;8.00;5.07;;;13.70;67.50;13.70;95655.00;;;;5028488;28;20237;-82
2022/11/15 16:38:16;;;;;;;15.20;5.33;;;13.60;67.50;13.70;95648.00;;;;5036536;28;20252;-83
2022/11/15 16:40:44;;;;;;;7.90;5.03;;;13.60;67.60;13.60;95647.00;;;;5036026;28;20201;-83
2022/11/15 16:43:11;;;;;;;7.33;4.73;;;13.50;67.60;13.60;95646.00;;;;5017898;28;20233;-82
2022/11/15 16:45:39;;;;;;;4.80;4.13;;;13.50;67.70;13.50;95638.00;;;;5021660;28;20669;-83
2022/11/15 16:48:06;;;;;;;6.47;4.77;;;13.50;67.50;13.50;95646.00;;;;5037150;28;20229;-84
2022/11/15 16:50:39;;;;;;;7.07;4.70;;;13.40;67.50;13.40;95641.00;;;;5034129;28;20228;-84
2022/11/15 16:53:07;;;;;;;7.17;4.77;;;13.40;67.60;13.30;95648.00;;;;5039331;28;20261;-84
2022/11/15 16:55:36;;;;;;;8.93;5.07;;;13.30;67.50;13.30;95641.00;;;;5037919;28;20217;-81
2022/11/15 16:58:04;;;;;;;8.67;5.47;;;13.30;67.60;13.20;95644.00;;;;5037832;28;20644;-84
2022/11/15 17:00:31;;;;;;;10.97;6.67;;;13.20;67.50;13.10;95644.00;;;;5031088;28;20225;-83
2022/11/15 17:02:58;;;;;;;13.00;8.63;;;13.10;67.50;13.10;95637.00;;;;5038272;28;20202;-83
2022/11/15 17:05:27;;;;;;;22.73;10.87;;;13.10;67.60;13.00;95638.00;;;;5039180;28;20636;-84
2022/11/15 17:07:54;;;;;;;23.77;10.63;;;13.00;67.70;13.00;95636.00;;;;5039794;28;20637;-83
2022/11/15 17:10:23;;;;;;;17.03;9.30;;;13.00;67.90;12.90;95635.00;;;;5031439;28;20713;-83
2022/11/15 17:12:52;;;;;;;16.03;8.57;;;12.90;67.90;12.80;95632.00;;;;5033569;28;20251;-84
2022/11/15 17:15:20;;;;;;;21.13;10.03;;;12.90;68.00;12.80;95628.00;;;;5022139;28;20276;-83
2022/11/15 17:17:52;;;;;;;20.13;8.87;;;12.80;68.10;12.70;95623.00;;;;5019948;28;20260;-83
2022/11/15 17:20:22;;;;;;;13.43;8.23;;;12.80;68.40;12.70;95623.00;;;;5020368;28;20186;-83
2022/11/15 17:22:50;;;;;;;8.63;6.40;;;12.70;68.50;12.70;95622.00;;;;5020840;28;20217;-82
2022/11/15 17:25:17;;;;;;;19.57;6.90;;;12.70;68.90;12.70;95616.00;;;;5028296;28;20253;-83
2022/11/15 17:27:44;;;;;;;12.63;6.37;;;12.70;69.20;12.70;95621.00;;;;5038079;28;20193;-84
2022/11/15 17:30:17;;;;;;;8.77;6.77;;;12.60;69.40;12.70;95615.00;;;;5040387;28;20197;-83